createdAt,value
2017-10-31T00:01:17.910Z,-1.06
2017-10-31T00:03:45.452Z,-1.09
2017-10-31T00:06:12.980Z,-1.13
2017-10-31T00:08:40.535Z,-1.15
2017-10-31T00:11:09.330Z,-1.17
2017-10-31T00:13:36.877Z,-1.05
2017-10-31T00:16:04.422Z,-1.07
2017-10-31T00:18:31.913Z,-1.20
2017-10-31T00:20:59.447Z,-1.20
2017-10-31T00:23:26.973Z,-1.32
2017-10-31T00:25:54.493Z,-1.34
2017-10-31T00:28:21.982Z,-1.26
2017-10-31T00:30:49.497Z,-1.00
2017-10-31T00:33:17.006Z,-1.12
2017-10-31T00:35:44.515Z,-1.18
2017-10-31T00:38:12.373Z,-1.28
2017-10-31T00:40:39.901Z,-1.33
2017-10-31T00:43:07.429Z,-1.26
2017-10-31T00:45:34.961Z,-1.36
2017-10-31T00:48:02.469Z,-1.40
2017-10-31T00:50:29.990Z,-1.29
2017-10-31T00:52:57.529Z,-1.30
2017-10-31T00:55:25.021Z,-1.29
2017-10-31T00:57:52.521Z,-1.40
2017-10-31T01:00:20.014Z,-1.36
2017-10-31T01:02:47.522Z,-1.40
2017-10-31T01:05:15.029Z,-1.43
2017-10-31T01:07:42.532Z,-1.44
2017-10-31T01:10:10.030Z,-1.48
2017-10-31T01:12:37.526Z,-1.48
2017-10-31T01:15:05.014Z,-1.28
2017-10-31T01:17:32.518Z,-1.39
2017-10-31T01:20:00.025Z,-1.48
2017-10-31T01:22:27.536Z,-1.62
2017-10-31T01:24:55.040Z,-1.69
2017-10-31T01:27:22.548Z,-1.70
2017-10-31T01:29:50.063Z,-1.67
2017-10-31T01:32:17.631Z,-1.66
2017-10-31T01:34:45.132Z,-1.73
2017-10-31T01:37:12.645Z,-1.73
2017-10-31T01:39:40.147Z,-1.72
2017-10-31T01:42:07.652Z,-1.69
2017-10-31T01:44:35.149Z,-1.77
2017-10-31T01:47:02.667Z,-1.74
2017-10-31T01:49:30.190Z,-1.80
2017-10-31T01:51:57.688Z,-1.63
2017-10-31T01:54:25.224Z,-1.63
2017-10-31T01:56:53.653Z,-1.75
2017-10-31T01:59:21.153Z,-1.73
2017-10-31T02:01:48.661Z,-1.80
2017-10-31T02:04:16.175Z,-1.84
2017-10-31T02:06:43.700Z,-1.88
2017-10-31T02:09:11.206Z,-1.90
2017-10-31T02:11:38.809Z,-1.92
2017-10-31T02:14:06.307Z,-1.89
2017-10-31T02:16:33.819Z,-1.90
2017-10-31T02:19:01.347Z,-1.93
2017-10-31T02:21:28.857Z,-1.97
2017-10-31T02:23:56.373Z,-2.00
2017-10-31T02:26:23.878Z,-1.95
2017-10-31T02:28:51.395Z,-1.70
2017-10-31T02:31:18.895Z,-1.75
2017-10-31T02:33:46.399Z,-1.83
2017-10-31T02:36:13.906Z,-1.85
2017-10-31T02:38:53.441Z,-1.90
2017-10-31T02:41:20.978Z,-1.98
2017-10-31T02:43:48.490Z,-1.91
2017-10-31T02:46:16.008Z,-2.01
2017-10-31T02:48:43.498Z,-2.08
2017-10-31T02:51:11.006Z,-1.98
2017-10-31T02:53:38.587Z,-1.94
2017-10-31T02:56:06.095Z,-2.00
2017-10-31T02:58:33.640Z,-2.00
2017-10-31T03:01:01.127Z,-1.88
2017-10-31T03:03:28.627Z,-2.01
2017-10-31T03:05:56.123Z,-2.08
2017-10-31T03:08:23.618Z,-2.09
2017-10-31T03:10:51.155Z,-2.18
2017-10-31T03:13:18.642Z,-1.99
2017-10-31T03:15:46.154Z,-2.05
2017-10-31T03:18:13.665Z,-2.13
2017-10-31T03:20:41.179Z,-2.02
2017-10-31T03:23:09.147Z,-2.17
2017-10-31T03:25:36.649Z,-2.13
2017-10-31T03:28:04.182Z,-2.29
2017-10-31T03:30:31.699Z,-2.23
2017-10-31T03:32:59.205Z,-2.11
2017-10-31T03:35:26.694Z,-2.11
2017-10-31T03:37:54.190Z,-2.23
2017-10-31T03:40:21.703Z,-2.22
2017-10-31T03:42:49.210Z,-2.29
2017-10-31T03:45:16.722Z,-2.12
2017-10-31T03:47:44.231Z,-2.07
2017-10-31T03:50:11.738Z,-2.10
2017-10-31T03:52:39.242Z,-2.28
2017-10-31T03:55:06.765Z,-2.19
2017-10-31T03:57:34.251Z,-2.09
2017-10-31T04:00:01.767Z,-2.18
2017-10-31T04:02:29.295Z,-2.25
2017-10-31T04:04:56.810Z,-2.33
2017-10-31T04:07:24.313Z,-2.35
2017-10-31T04:09:51.814Z,-2.24
2017-10-31T04:12:19.474Z,-2.30
2017-10-31T04:14:46.979Z,-2.25
2017-10-31T04:17:14.595Z,-2.42
2017-10-31T04:19:42.110Z,-2.48
2017-10-31T04:22:09.617Z,-2.39
2017-10-31T04:24:37.148Z,-2.43
2017-10-31T04:27:04.668Z,-2.40
2017-10-31T04:29:32.155Z,-2.46
2017-10-31T04:31:59.671Z,-2.45
2017-10-31T04:34:27.174Z,-2.25
2017-10-31T04:36:54.695Z,-2.41
2017-10-31T04:39:22.194Z,-2.37
2017-10-31T04:41:49.722Z,-2.40
2017-10-31T04:44:17.241Z,-2.49
2017-10-31T04:46:44.738Z,-2.42
2017-10-31T04:49:12.269Z,-2.48
2017-10-31T04:51:39.789Z,-2.47
2017-10-31T04:54:07.294Z,-2.53
2017-10-31T04:56:34.809Z,-2.58
2017-10-31T04:59:02.355Z,-2.58
2017-10-31T05:01:29.870Z,-2.63
2017-10-31T05:03:57.385Z,-2.70
2017-10-31T05:06:24.901Z,-2.66
2017-10-31T05:08:52.414Z,-2.65
2017-10-31T05:11:19.910Z,-2.60
2017-10-31T05:13:47.424Z,-2.60
2017-10-31T05:16:14.938Z,-2.65
2017-10-31T05:18:42.466Z,-2.74
2017-10-31T05:21:09.981Z,-2.63
2017-10-31T05:23:37.549Z,-2.18
2017-10-31T05:26:05.065Z,-2.38
2017-10-31T05:28:32.578Z,-2.53
2017-10-31T05:31:00.095Z,-2.51
2017-10-31T05:33:27.603Z,-2.48
2017-10-31T05:35:55.123Z,-2.49
2017-10-31T05:38:22.636Z,-2.56
2017-10-31T05:40:50.146Z,-2.57
2017-10-31T05:43:17.674Z,-2.71
2017-10-31T05:45:45.198Z,-2.73
2017-10-31T05:48:12.750Z,-2.78
2017-10-31T05:50:40.244Z,-2.80
2017-10-31T05:53:07.761Z,-2.79
2017-10-31T05:55:35.276Z,-2.75
2017-10-31T05:58:02.784Z,-2.55
2017-10-31T06:00:30.402Z,-2.57
2017-10-31T06:02:57.913Z,-2.66
2017-10-31T06:05:25.429Z,-2.43
2017-10-31T06:07:52.946Z,-2.58
2017-10-31T06:10:20.440Z,-2.76
2017-10-31T06:12:47.957Z,-2.56
2017-10-31T06:15:15.456Z,-2.47
2017-10-31T06:17:42.957Z,-2.57
2017-10-31T06:20:10.458Z,-2.64
2017-10-31T06:25:47.773Z,-2.57
2017-10-31T06:28:20.850Z,-2.63
2017-10-31T06:30:54.050Z,-2.59
2017-10-31T06:33:21.553Z,-2.27
2017-10-31T06:35:49.081Z,-2.43
2017-10-31T06:38:16.595Z,-2.52
2017-10-31T06:40:44.106Z,-2.53
2017-10-31T06:43:11.625Z,-2.51
2017-10-31T06:45:39.141Z,-2.45
2017-10-31T06:48:06.689Z,-2.45
2017-10-31T06:50:34.193Z,-2.38
2017-10-31T06:53:01.689Z,-2.29
2017-10-31T06:55:29.222Z,-2.19
2017-10-31T06:57:56.743Z,-2.14
2017-10-31T07:00:24.267Z,-2.10
2017-10-31T07:02:51.784Z,-1.97
2017-10-31T07:05:19.327Z,-1.69
2017-10-31T07:07:46.856Z,-1.57
2017-10-31T07:10:14.362Z,-1.47
2017-10-31T07:12:41.871Z,-1.43
2017-10-31T07:15:09.365Z,-1.34
2017-10-31T07:17:36.878Z,-1.40
2017-10-31T07:20:04.427Z,-1.33
2017-10-31T07:22:31.946Z,-1.22
2017-10-31T07:24:59.467Z,-1.04
2017-10-31T07:27:26.986Z,-0.97
2017-10-31T07:29:54.492Z,-1.01
2017-10-31T07:32:21.999Z,-0.83
2017-10-31T07:34:49.526Z,-0.67
2017-10-31T07:37:17.045Z,-0.34
2017-10-31T07:39:44.541Z,-0.22
2017-10-31T07:42:12.034Z,-0.13
2017-10-31T07:44:39.539Z,0.26
2017-10-31T07:47:07.035Z,0.62
2017-10-31T07:49:34.524Z,0.96
2017-10-31T07:52:02.017Z,1.67
2017-10-31T07:54:29.510Z,2.37
2017-10-31T07:56:57.002Z,3.43
2017-10-31T07:59:24.503Z,4.02
2017-10-31T08:01:52.008Z,5.22
2017-10-31T08:04:19.514Z,6.45
2017-10-31T08:06:47.025Z,6.64
2017-10-31T08:09:14.544Z,7.63
2017-10-31T08:11:42.047Z,10.35
2017-10-31T08:14:09.557Z,9.82
2017-10-31T08:16:37.056Z,10.99
2017-10-31T08:19:04.576Z,11.57
2017-10-31T08:21:32.068Z,11.65
2017-10-31T08:23:59.558Z,11.80
2017-10-31T08:26:27.078Z,11.83
2017-10-31T08:28:54.596Z,11.47
2017-10-31T08:31:22.163Z,11.36
2017-10-31T08:33:49.671Z,12.36
2017-10-31T08:36:17.177Z,13.20
2017-10-31T08:38:44.677Z,13.73
2017-10-31T08:41:12.178Z,12.92
2017-10-31T08:43:39.669Z,11.02
2017-10-31T08:46:07.177Z,10.21
2017-10-31T08:48:34.679Z,9.61
2017-10-31T08:51:02.179Z,10.09
2017-10-31T08:53:29.673Z,11.19
2017-10-31T08:55:57.154Z,12.18
2017-10-31T08:58:31.261Z,12.83
2017-10-31T09:00:58.773Z,13.86
2017-10-31T09:03:26.278Z,14.97
2017-10-31T09:05:53.789Z,14.48
2017-10-31T09:08:21.293Z,13.50
2017-10-31T09:10:48.777Z,11.96
2017-10-31T09:13:16.356Z,14.36
2017-10-31T09:15:43.864Z,15.11
2017-10-31T09:18:11.358Z,14.20
2017-10-31T09:20:38.850Z,14.73
2017-10-31T09:23:06.364Z,12.39
2017-10-31T09:25:33.875Z,13.68
2017-10-31T09:28:01.389Z,14.01
2017-10-31T09:30:28.961Z,14.37
2017-10-31T09:32:56.449Z,11.87
2017-10-31T09:35:23.978Z,13.24
2017-10-31T09:37:51.496Z,12.34
2017-10-31T09:40:19.007Z,11.72
2017-10-31T09:42:46.511Z,11.54
2017-10-31T09:45:14.038Z,11.85
2017-10-31T09:47:41.546Z,11.96
2017-10-31T09:50:09.047Z,13.13
2017-10-31T09:52:36.533Z,12.45
2017-10-31T09:55:04.057Z,11.85
2017-10-31T09:57:31.657Z,12.49
2017-10-31T09:59:59.197Z,12.12
2017-10-31T10:02:26.738Z,13.29
2017-10-31T10:04:54.241Z,12.78
2017-10-31T10:07:21.758Z,15.69
2017-10-31T10:09:49.266Z,16.53
2017-10-31T10:12:16.777Z,18.11
2017-10-31T10:14:44.405Z,14.50
2017-10-31T10:17:11.971Z,16.54
2017-10-31T10:19:39.471Z,18.69
2017-10-31T10:22:07.002Z,19.14
2017-10-31T10:24:34.556Z,21.58
2017-10-31T10:27:02.060Z,17.73
2017-10-31T10:29:29.646Z,18.04
2017-10-31T10:31:57.153Z,19.56
2017-10-31T10:34:24.658Z,21.06
2017-10-31T10:36:52.167Z,20.61
2017-10-31T10:39:20.676Z,20.90
2017-10-31T10:41:48.189Z,20.57
2017-10-31T10:44:15.829Z,21.03
2017-10-31T10:46:43.341Z,20.71
2017-10-31T10:49:10.848Z,22.60
2017-10-31T10:51:38.374Z,20.52
2017-10-31T10:54:05.878Z,20.46
2017-10-31T10:56:33.393Z,21.23
2017-10-31T10:59:00.940Z,23.38
2017-10-31T11:01:28.434Z,22.08
2017-10-31T11:03:55.986Z,21.32
2017-10-31T11:06:23.520Z,20.06
2017-10-31T11:08:51.043Z,21.42
2017-10-31T11:11:18.553Z,20.86
2017-10-31T11:13:46.055Z,20.70
2017-10-31T11:16:13.573Z,20.40
2017-10-31T11:18:41.123Z,21.17
2017-10-31T11:21:08.651Z,21.97
2017-10-31T11:23:36.172Z,21.31
2017-10-31T11:26:03.693Z,20.54
2017-10-31T11:28:31.212Z,20.86
2017-10-31T11:30:58.713Z,20.15
2017-10-31T11:33:26.223Z,19.55
2017-10-31T11:35:53.772Z,19.61
2017-10-31T11:38:21.267Z,21.09
2017-10-31T11:40:48.777Z,21.64
2017-10-31T11:43:16.302Z,20.27
2017-10-31T11:45:43.817Z,18.75
2017-10-31T11:48:11.693Z,17.85
2017-10-31T11:50:39.192Z,15.87
2017-10-31T11:53:06.719Z,13.65
2017-10-31T11:55:34.221Z,13.25
2017-10-31T11:58:01.761Z,13.22
2017-10-31T12:00:29.332Z,13.91
2017-10-31T12:02:56.837Z,12.77
2017-10-31T12:05:24.449Z,12.66
2017-10-31T12:07:52.909Z,13.14
2017-10-31T12:10:20.404Z,13.95
2017-10-31T12:12:47.934Z,13.07
2017-10-31T12:15:15.463Z,12.80
2017-10-31T12:17:43.066Z,12.06
2017-10-31T12:20:10.569Z,12.85
2017-10-31T12:22:38.108Z,13.37
2017-10-31T12:25:05.625Z,14.67
2017-10-31T12:27:33.111Z,15.85
2017-10-31T12:30:00.622Z,13.71
2017-10-31T12:32:28.126Z,12.16
2017-10-31T12:34:55.639Z,11.42
2017-10-31T12:37:23.143Z,10.98
2017-10-31T12:39:50.647Z,12.91
2017-10-31T12:42:18.147Z,11.77
2017-10-31T12:44:45.647Z,11.40
2017-10-31T12:47:13.159Z,10.80
2017-10-31T12:49:40.666Z,10.81
2017-10-31T12:52:08.189Z,10.85
2017-10-31T12:54:35.685Z,12.53
2017-10-31T12:57:03.245Z,14.46
2017-10-31T12:59:30.743Z,13.88
2017-10-31T13:01:58.243Z,13.82
2017-10-31T13:04:25.742Z,13.56
2017-10-31T13:06:53.270Z,14.80
2017-10-31T13:09:20.781Z,15.42
2017-10-31T13:11:48.290Z,16.32
2017-10-31T13:14:15.813Z,16.34
2017-10-31T13:16:43.325Z,15.81
2017-10-31T13:19:10.859Z,15.85
2017-10-31T13:21:38.393Z,15.22
2017-10-31T13:24:05.941Z,15.14
2017-10-31T13:26:34.354Z,16.02
2017-10-31T13:29:02.800Z,15.22
2017-10-31T13:31:31.130Z,13.77
2017-10-31T13:33:59.503Z,13.90
2017-10-31T13:36:27.610Z,14.67
2017-10-31T13:38:56.022Z,15.28
2017-10-31T13:41:24.526Z,14.89
2017-10-31T13:43:52.951Z,15.21
2017-10-31T13:46:20.509Z,15.22
2017-10-31T13:48:48.195Z,15.29
2017-10-31T13:51:16.659Z,15.05
2017-10-31T13:53:44.196Z,15.88
2017-10-31T13:56:11.729Z,16.61
2017-10-31T13:58:39.391Z,14.98
2017-10-31T14:01:07.088Z,15.65
2017-10-31T14:03:34.813Z,16.20
2017-10-31T14:06:03.193Z,15.00
2017-10-31T14:08:31.686Z,15.99
2017-10-31T14:10:59.763Z,15.55
2017-10-31T14:13:27.322Z,14.77
2017-10-31T14:15:54.918Z,14.22
2017-10-31T14:18:22.485Z,14.05
2017-10-31T14:20:50.717Z,13.83
2017-10-31T14:23:18.290Z,13.02
2017-10-31T14:25:45.851Z,12.89
2017-10-31T14:28:13.424Z,12.12
2017-10-31T14:30:40.978Z,13.16
2017-10-31T14:33:08.551Z,12.50
2017-10-31T14:35:36.125Z,11.62
2017-10-31T14:38:03.666Z,12.02
2017-10-31T14:40:31.215Z,11.68
2017-10-31T14:42:58.748Z,11.27
2017-10-31T14:45:26.291Z,10.79
2017-10-31T14:47:53.836Z,11.25
2017-10-31T14:50:21.498Z,10.98
2017-10-31T14:52:49.039Z,9.76
2017-10-31T14:55:16.747Z,9.66
2017-10-31T14:57:44.289Z,9.49
2017-10-31T15:00:11.843Z,8.85
2017-10-31T15:02:39.539Z,8.41
2017-10-31T15:05:07.206Z,8.10
2017-10-31T15:07:34.738Z,8.20
2017-10-31T15:10:02.284Z,8.55
2017-10-31T15:12:29.849Z,8.01
2017-10-31T15:14:57.408Z,7.77
2017-10-31T15:17:24.946Z,7.61
2017-10-31T15:19:52.504Z,7.33
2017-10-31T15:22:20.073Z,7.17
2017-10-31T15:24:47.649Z,6.98
2017-10-31T15:27:15.231Z,6.83
2017-10-31T15:29:42.787Z,6.77
2017-10-31T15:32:10.505Z,6.65
2017-10-31T15:34:38.066Z,6.53
2017-10-31T15:37:05.671Z,6.51
2017-10-31T15:39:33.211Z,6.40
2017-10-31T15:42:00.745Z,6.28
2017-10-31T15:44:28.282Z,6.01
2017-10-31T15:46:55.862Z,5.86
2017-10-31T15:49:23.405Z,5.79
2017-10-31T15:51:50.945Z,5.71
2017-10-31T15:54:18.522Z,5.52
2017-10-31T15:56:46.079Z,5.55
2017-10-31T15:59:13.603Z,5.53
2017-10-31T16:01:41.218Z,5.62
2017-10-31T16:04:08.887Z,5.62
2017-10-31T16:06:36.452Z,5.49
2017-10-31T16:09:04.032Z,5.31
2017-10-31T16:11:31.606Z,4.94
2017-10-31T16:13:59.256Z,4.83
2017-10-31T16:16:26.801Z,4.89
2017-10-31T16:18:54.361Z,4.71
2017-10-31T16:21:21.997Z,4.44
2017-10-31T16:23:49.541Z,4.17
2017-10-31T16:26:17.096Z,4.23
2017-10-31T16:28:45.845Z,4.18
2017-10-31T16:31:13.409Z,4.19
2017-10-31T16:33:40.974Z,4.22
2017-10-31T16:36:08.505Z,4.08
2017-10-31T16:38:36.045Z,3.85
2017-10-31T16:41:03.588Z,3.46
2017-10-31T16:43:31.145Z,3.41
2017-10-31T16:45:58.677Z,3.48
2017-10-31T16:48:26.220Z,3.33
2017-10-31T16:50:53.833Z,3.27
2017-10-31T16:53:21.417Z,3.12
2017-10-31T16:55:48.986Z,3.12
2017-10-31T16:58:16.538Z,3.04
2017-10-31T17:00:44.107Z,2.86
2017-10-31T17:03:11.870Z,2.71
2017-10-31T17:05:39.446Z,2.65
2017-10-31T17:08:07.043Z,2.75
2017-10-31T17:10:34.652Z,2.75
2017-10-31T17:13:02.204Z,2.74
2017-10-31T17:15:29.782Z,2.66
2017-10-31T17:17:57.361Z,2.63
2017-10-31T17:20:24.927Z,2.81
2017-10-31T17:22:52.453Z,2.67
2017-10-31T17:25:20.106Z,2.73
2017-10-31T17:27:47.650Z,2.57
2017-10-31T17:30:15.193Z,2.34
2017-10-31T17:32:42.737Z,2.31
2017-10-31T17:35:10.283Z,2.27
2017-10-31T17:37:37.829Z,2.22
2017-10-31T17:40:05.369Z,2.28
2017-10-31T17:42:33.013Z,2.27
2017-10-31T17:45:00.689Z,2.57
2017-10-31T17:47:28.250Z,2.51
2017-10-31T17:49:55.854Z,2.29
2017-10-31T17:52:23.396Z,1.97
2017-10-31T17:54:50.944Z,1.86
2017-10-31T17:57:18.506Z,1.86
2017-10-31T17:59:46.130Z,1.98
2017-10-31T18:02:13.754Z,2.09
2017-10-31T18:04:41.413Z,2.00
2017-10-31T18:07:08.952Z,1.80
2017-10-31T18:09:36.501Z,1.72
2017-10-31T18:12:04.133Z,1.58
2017-10-31T18:14:31.675Z,1.60
2017-10-31T18:16:59.200Z,1.85
2017-10-31T18:19:26.756Z,1.78
2017-10-31T18:21:54.307Z,1.90
2017-10-31T18:24:21.845Z,1.74
2017-10-31T18:26:49.427Z,1.36
2017-10-31T18:29:16.983Z,1.23
2017-10-31T18:31:44.567Z,1.33
2017-10-31T18:34:12.112Z,1.26
2017-10-31T18:36:39.715Z,1.47
2017-10-31T18:39:07.307Z,1.51
2017-10-31T18:41:34.856Z,1.34
2017-10-31T18:44:02.414Z,1.17
2017-10-31T18:46:29.977Z,1.28
2017-10-31T18:48:57.508Z,1.31
2017-10-31T18:51:25.073Z,1.16
2017-10-31T18:53:52.622Z,1.22
2017-10-31T18:56:20.154Z,1.21
2017-10-31T18:58:47.682Z,1.54
2017-10-31T19:01:15.218Z,1.58
2017-10-31T19:03:42.778Z,1.53
2017-10-31T19:06:10.338Z,1.36
2017-10-31T19:08:37.885Z,1.45
2017-10-31T19:11:05.553Z,1.32
2017-10-31T19:13:33.095Z,1.46
2017-10-31T19:16:00.643Z,1.44
2017-10-31T19:18:28.218Z,1.26
2017-10-31T19:20:55.753Z,1.23
2017-10-31T19:23:23.399Z,1.34
2017-10-31T19:25:50.926Z,1.31
2017-10-31T19:28:18.467Z,1.49
2017-10-31T19:30:46.022Z,1.74
2017-10-31T19:33:13.563Z,1.82
2017-10-31T19:35:41.129Z,1.90
2017-10-31T19:38:08.676Z,1.80
2017-10-31T19:40:36.218Z,2.02
2017-10-31T19:43:03.765Z,2.06
2017-10-31T19:45:31.430Z,2.16
2017-10-31T19:47:58.985Z,2.22
2017-10-31T19:50:26.558Z,2.13
2017-10-31T19:52:54.131Z,2.12
2017-10-31T19:55:21.673Z,1.95
2017-10-31T19:57:49.252Z,2.12
2017-10-31T20:00:16.802Z,2.19
2017-10-31T20:02:44.349Z,1.90
2017-10-31T20:05:11.910Z,1.65
2017-10-31T20:07:39.445Z,1.79
2017-10-31T20:10:06.976Z,1.59
2017-10-31T20:12:34.515Z,1.59
2017-10-31T20:15:02.070Z,1.72
2017-10-31T20:17:29.615Z,1.78
2017-10-31T20:19:57.173Z,1.75
2017-10-31T20:22:24.722Z,2.04
2017-10-31T20:24:52.270Z,2.13
2017-10-31T20:27:19.834Z,2.00
2017-10-31T20:29:47.406Z,1.81
2017-10-31T20:32:14.972Z,1.67
2017-10-31T20:34:42.539Z,1.61
2017-10-31T20:37:10.110Z,1.79
2017-10-31T20:39:37.673Z,1.98
2017-10-31T20:42:05.800Z,2.14
2017-10-31T20:44:33.394Z,2.20
2017-10-31T20:47:00.931Z,2.17
2017-10-31T20:49:28.477Z,2.30
2017-10-31T20:51:56.027Z,2.24
2017-10-31T20:54:23.627Z,2.41
2017-10-31T20:56:51.195Z,2.38
2017-10-31T20:59:18.741Z,2.41
2017-10-31T21:01:46.270Z,2.33
2017-10-31T21:04:13.918Z,2.38
2017-10-31T21:06:41.477Z,2.14
2017-10-31T21:09:09.028Z,1.90
2017-10-31T21:11:36.741Z,2.03
2017-10-31T21:14:04.281Z,2.30
2017-10-31T21:16:31.834Z,2.32
2017-10-31T21:18:59.519Z,2.26
2017-10-31T21:21:27.080Z,2.14
2017-10-31T21:23:54.634Z,2.11
2017-10-31T21:26:22.167Z,2.18
2017-10-31T21:28:49.755Z,2.03
2017-10-31T21:31:17.288Z,2.01
2017-10-31T21:33:44.850Z,2.23
2017-10-31T21:36:12.403Z,2.28
2017-10-31T21:38:39.959Z,2.12
2017-10-31T21:41:07.489Z,2.05
2017-10-31T21:43:35.036Z,2.03
2017-10-31T21:46:02.578Z,2.09
2017-10-31T21:48:30.128Z,2.06
2017-10-31T21:50:57.659Z,2.15
2017-10-31T21:53:25.209Z,2.18
2017-10-31T21:55:52.767Z,2.19
2017-10-31T21:58:20.322Z,2.38
2017-10-31T22:00:47.874Z,2.49
2017-10-31T22:03:15.410Z,2.76
2017-10-31T22:05:42.954Z,2.58
2017-10-31T22:08:10.492Z,2.41
2017-10-31T22:10:38.155Z,2.58
2017-10-31T22:13:05.745Z,2.44
2017-10-31T22:15:33.289Z,2.42
2017-10-31T22:18:00.839Z,2.47
2017-10-31T22:20:28.380Z,2.66
2017-10-31T22:22:55.933Z,2.38
2017-10-31T22:25:23.482Z,2.30
2017-10-31T22:27:51.017Z,2.29
2017-10-31T22:30:18.553Z,2.29
2017-10-31T22:32:46.101Z,2.28
2017-10-31T22:35:13.657Z,2.32
2017-10-31T22:37:41.254Z,2.51
2017-10-31T22:40:08.788Z,2.70
2017-10-31T22:42:36.339Z,2.83
2017-10-31T22:45:03.895Z,2.80
2017-10-31T22:47:31.597Z,2.85
2017-10-31T22:49:59.147Z,2.83
2017-10-31T22:52:26.723Z,2.70
2017-10-31T22:54:54.290Z,2.91
2017-10-31T22:57:22.683Z,3.03
2017-10-31T22:59:50.249Z,3.16
2017-10-31T23:02:17.912Z,3.11
2017-10-31T23:04:45.455Z,3.08
2017-10-31T23:07:12.986Z,3.20
2017-10-31T23:09:40.542Z,3.26
2017-10-31T23:12:08.092Z,3.41
2017-10-31T23:14:35.686Z,3.35
2017-10-31T23:17:03.234Z,3.29
2017-10-31T23:19:30.787Z,3.34
2017-10-31T23:21:58.318Z,3.27
2017-10-31T23:24:25.878Z,3.02
2017-10-31T23:26:53.429Z,2.92
2017-10-31T23:29:20.990Z,2.86
2017-10-31T23:31:48.541Z,2.78
2017-10-31T23:34:16.079Z,2.87
2017-10-31T23:36:43.621Z,2.66
2017-10-31T23:39:11.164Z,2.69
2017-10-31T23:41:38.716Z,2.87
2017-10-31T23:44:06.259Z,2.93
2017-10-31T23:46:33.845Z,2.68
2017-10-31T23:49:01.402Z,2.61
2017-10-31T23:51:28.931Z,2.50
2017-10-31T23:53:56.497Z,2.43
2017-10-31T23:56:24.046Z,2.48
2017-10-31T23:58:51.600Z,2.35
